Time;durP1;ratioP1;P1;durP2;ratioP2;P2;SDS_P1;SDS_P2;PMS_P1;PMS_P2;Temp;Humidity;BMP_temperature;BMP_pressure;BME280_temperature;BME280_humidity;BME280_pressure;Samples;Min_cycle;Max_cycle;Signal;HPM_P1;HPM_P2
2022/07/14 00:01:08;;;;;;;13.63;5.10;;;;;;;16.44;80.31;101921.72;5347466;27;20027;-74
2022/07/14 00:03:39;;;;;;;14.23;4.57;;;;;;;16.40;80.36;101915.66;5348776;27;20035;-74
2022/07/14 00:06:11;;;;;;;10.33;4.87;;;;;;;16.28;80.52;101923.81;5348661;27;20049;-74
2022/07/14 00:08:45;;;;;;;14.90;4.70;;;;;;;16.21;80.90;101923.91;5348669;27;20119;-74
2022/07/14 00:11:17;;;;;;;12.32;4.22;;;;;;;16.25;80.93;101929.97;5351546;27;20129;-74
2022/07/14 00:13:48;;;;;;;13.37;3.20;;;;;;;16.28;81.09;101923.81;5354492;27;20050;-74
2022/07/14 00:16:20;;;;;;;17.97;4.67;;;;;;;16.20;81.21;101911.66;5353843;27;20062;-74
2022/07/14 00:18:51;;;;;;;10.93;3.70;;;;;;;16.09;81.66;101904.84;5352052;27;20038;-74
2022/07/14 00:21:23;;;;;;;13.73;4.63;;;;;;;16.09;81.70;101903.06;5353680;27;20385;-74
2022/07/14 00:23:54;;;;;;;9.40;4.27;;;;;;;16.08;82.01;101887.31;5350842;27;20498;-74
2022/07/14 00:26:26;;;;;;;11.40;4.20;;;;;;;16.07;81.78;101877.69;5348812;27;20027;-74
2022/07/14 00:28:58;;;;;;;13.60;4.50;;;;;;;16.15;81.53;101876.66;5348418;27;20142;-75
2022/07/14 00:31:29;;;;;;;13.55;4.18;;;;;;;16.18;81.61;101888.88;5349368;27;20359;-74
2022/07/14 00:34:01;;;;;;;15.43;5.17;;;;;;;16.06;81.57;101897.88;5353850;27;20037;-73
2022/07/14 00:36:32;;;;;;;13.57;4.73;;;;;;;16.01;82.00;101907.59;5351258;27;20076;-74
2022/07/14 00:39:03;;;;;;;14.20;5.00;;;;;;;16.23;81.60;101911.59;5348703;27;20037;-75
2022/07/14 00:41:35;;;;;;;14.57;5.70;;;;;;;16.15;82.03;101905.59;5347069;27;20375;-74
2022/07/14 00:44:06;;;;;;;17.23;5.93;;;;;;;16.31;81.99;101910.56;5348686;27;20031;-75
2022/07/14 00:46:38;;;;;;;15.30;4.53;;;;;;;16.08;82.32;101913.63;5348613;27;20454;-74
2022/07/14 00:49:09;;;;;;;14.37;4.63;;;;;;;16.14;82.39;101908.25;5348048;27;20034;-74
2022/07/14 00:51:41;;;;;;;11.00;4.30;;;;;;;16.19;82.01;101904.63;5346651;27;20031;-74
2022/07/14 00:54:24;;;;;;;10.73;4.00;;;;;;;16.11;82.78;101897.78;5347957;27;20024;-75
2022/07/14 00:56:56;;;;;;;11.48;3.55;;;;;;;16.11;82.63;101905.69;5348152;27;20130;-74
2022/07/14 00:59:27;;;;;;;10.43;3.87;;;;;;;16.17;82.72;101906.44;5346755;27;20110;-74
2022/07/14 01:01:59;;;;;;;11.57;4.97;;;;;;;16.22;82.66;101906.34;5348416;27;20031;-74
2022/07/14 01:04:30;;;;;;;11.67;4.20;;;;;;;16.31;82.17;101903.56;5347955;27;20066;-75
2022/07/14 01:07:02;;;;;;;9.53;4.17;;;;;;;16.23;82.14;101911.59;5347430;27;20064;-75
2022/07/14 01:09:34;;;;;;;12.18;3.83;;;;;;;16.26;82.03;101921.19;5347625;27;20032;-74
2022/07/14 01:12:07;;;;;;;12.00;4.68;;;;;;;16.22;82.18;101925.63;5347782;27;20474;-74
2022/07/14 01:14:39;;;;;;;17.15;4.40;;;;;;;16.09;82.48;101925.91;5347357;27;20031;-74
2022/07/14 01:17:11;;;;;;;15.18;4.57;;;;;;;16.03;82.67;101918.97;5347454;27;20031;-75
2022/07/14 01:19:43;;;;;;;13.70;4.07;;;;;;;16.17;82.75;101924.00;5347629;27;20054;-74
2022/07/14 01:22:14;;;;;;;14.07;5.00;;;;;;;16.14;82.47;101930.16;5346474;27;20027;-74
2022/07/14 01:24:46;;;;;;;11.48;4.15;;;;;;;16.09;82.95;101942.53;5347322;27;20050;-74
2022/07/14 01:27:17;;;;;;;11.30;4.20;;;;;;;16.08;82.91;101939.94;5347017;27;20403;-74
2022/07/14 01:29:49;;;;;;;14.97;5.00;;;;;;;16.13;82.56;101932.81;5346532;27;20054;-73
2022/07/14 01:32:20;;;;;;;10.00;3.73;;;;;;;16.23;82.77;101934.41;5345973;27;20355;-74
2022/07/14 01:34:52;;;;;;;11.97;4.10;;;;;;;15.89;83.54;101935.00;5347230;27;20354;-73
2022/07/14 01:37:23;;;;;;;23.73;5.47;;;;;;;15.87;83.75;101931.50;5328321;27;20034;-73
2022/07/14 01:39:55;;;;;;;12.97;5.17;;;;;;;16.00;84.06;101930.41;5346842;27;20034;-73
2022/07/14 01:42:27;;;;;;;13.93;4.43;;;;;;;15.86;84.09;101925.38;5347182;27;20527;-73
2022/07/14 01:44:58;;;;;;;11.98;4.65;;;;;;;15.85;84.50;101934.16;5347316;27;20024;-74
2022/07/14 01:47:29;;;;;;;13.47;4.93;;;;;;;15.78;84.61;101934.31;5346979;27;20058;-73
2022/07/14 01:50:01;;;;;;;10.97;4.17;;;;;;;15.86;85.15;101924.53;5346915;27;20038;-74
2022/07/14 01:52:32;;;;;;;14.23;5.03;;;;;;;15.94;84.73;101922.63;5345539;27;20059;-73
2022/07/14 01:55:04;;;;;;;15.17;4.67;;;;;;;16.02;84.44;101927.78;5347129;27;20023;-74
2022/07/14 01:57:35;;;;;;;15.25;5.22;;;;;;;15.90;84.50;101922.72;5350378;27;20038;-72
2022/07/14 02:00:07;;;;;;;12.27;4.83;;;;;;;15.97;84.23;101911.16;5362338;27;20043;-72
2022/07/14 02:02:39;;;;;;;12.68;5.18;;;;;;;15.76;84.89;101913.28;5348748;27;20130;-72
2022/07/14 02:05:10;;;;;;;14.67;4.60;;;;;;;15.71;84.75;101920.34;5346688;27;20377;-73
2022/07/14 02:07:42;;;;;;;11.20;4.57;;;;;;;15.69;85.19;101908.97;5344823;28;20023;-74
2022/07/14 02:13:03;;;;;;;12.88;4.65;;;;;;;15.37;86.05;101920.84;5346380;28;20043;-73
2022/07/14 02:15:34;;;;;;;14.13;5.33;;;;;;;15.30;86.73;101917.44;5346531;27;20458;-73
2022/07/14 02:18:06;;;;;;;11.73;5.80;;;;;;;15.31;86.84;101916.56;5345318;27;20031;-73
2022/07/14 02:20:37;;;;;;;15.93;5.20;;;;;;;15.22;87.17;101911.44;5346745;27;20057;-73
2022/07/14 02:23:08;;;;;;;11.70;5.97;;;;;;;15.22;87.16;101918.47;5346571;27;20126;-73
2022/07/14 02:25:40;;;;;;;13.43;4.60;;;;;;;15.02;87.72;101923.97;5346598;27;20031;-73
2022/07/14 02:28:11;;;;;;;13.03;4.77;;;;;;;14.99;88.15;101919.63;5346849;27;20107;-72
2022/07/14 02:30:42;;;;;;;12.77;4.20;;;;;;;15.09;88.04;101926.50;5346340;27;20051;-72
2022/07/14 02:33:14;;;;;;;17.33;6.10;;;;;;;15.21;87.70;101919.34;5345111;27;20148;-73
2022/07/14 02:35:45;;;;;;;14.77;4.68;;;;;;;15.05;88.22;101914.31;5350186;27;20505;-73
2022/07/14 02:38:17;;;;;;;11.03;4.43;;;;;;;14.92;88.36;101900.47;5349126;27;20035;-73
2022/07/14 02:40:48;;;;;;;16.03;6.13;;;;;;;14.91;88.39;101906.59;5349204;27;20031;-73
2022/07/14 02:43:20;;;;;;;14.33;4.40;;;;;;;14.75;88.92;101905.94;5350126;27;20035;-73
2022/07/14 02:45:51;;;;;;;12.20;4.50;;;;;;;14.73;89.09;101901.56;5350568;27;20023;-73
2022/07/14 02:48:23;;;;;;;15.57;4.97;;;;;;;14.62;89.25;101896.47;5350328;27;20385;-72
2022/07/14 02:50:59;;;;;;;19.07;6.63;;;;;;;14.47;89.95;101893.97;5348943;27;20172;-73
2022/07/14 02:53:32;;;;;;;15.40;4.20;;;;;;;14.48;90.26;101885.25;5349811;27;20039;-73
2022/07/14 02:56:06;;;;;;;13.40;5.57;;;;;;;14.65;89.96;101892.94;5349971;27;20031;-73
2022/07/14 02:58:37;;;;;;;11.82;4.68;;;;;;;14.61;89.67;101884.22;5350118;27;20450;-72
2022/07/14 03:01:09;;;;;;;13.03;5.23;;;;;;;14.39;90.39;101884.47;5350283;27;20122;-72
2022/07/14 03:03:40;;;;;;;13.35;5.15;;;;;;;14.28;90.71;101895.94;5350032;27;20027;-72
2022/07/14 03:06:17;;;;;;;17.03;5.43;;;;;;;14.22;90.85;101904.75;5349942;27;20023;-73
2022/07/14 03:08:48;;;;;;;13.77;4.65;;;;;;;14.09;91.58;101890.88;5349758;27;20031;-72
2022/07/14 03:11:20;;;;;;;14.70;4.87;;;;;;;14.17;91.78;101889.06;5349551;27;20031;-73
2022/07/14 03:13:51;;;;;;;12.43;5.07;;;;;;;14.02;91.84;101887.47;5350062;27;20375;-73
2022/07/14 03:16:22;;;;;;;12.07;4.37;;;;;;;13.93;92.37;101882.28;5349406;27;20070;-73
2022/07/14 03:18:54;;;;;;;11.90;5.10;;;;;;;13.94;92.47;101876.19;5349646;27;20386;-73
2022/07/14 03:21:25;;;;;;;13.13;5.00;;;;;;;13.91;92.54;101870.06;5349591;27;20543;-72
2022/07/14 03:23:57;;;;;;;14.13;5.30;;;;;;;13.93;92.97;101869.19;5349648;27;20035;-72
2022/07/14 03:26:29;;;;;;;19.00;5.47;;;;;;;13.88;92.89;101872.72;5348183;27;20035;-72
2022/07/14 03:29:00;;;;;;;13.48;5.22;;;;;;;13.88;92.96;101864.84;5347639;27;20027;-73
2022/07/14 03:31:31;;;;;;;16.80;5.77;;;;;;;13.78;92.92;101866.69;5348846;27;20047;-71
2022/07/14 03:34:03;;;;;;;19.23;5.60;;;;;;;13.80;93.34;101865.81;5349436;27;20054;-73
2022/07/14 03:36:34;;;;;;;11.23;5.57;;;;;;;13.76;93.41;101858.84;5349344;27;20501;-73
2022/07/14 03:39:06;;;;;;;15.73;6.27;;;;;;;13.76;93.46;101866.69;5349292;27;20435;-73
2022/07/14 03:41:37;;;;;;;18.57;6.10;;;;;;;13.77;93.49;101864.97;5348919;27;20115;-73
2022/07/14 03:44:08;;;;;;;12.57;6.33;;;;;;;13.64;93.51;101866.84;5349125;27;20051;-73
2022/07/14 03:46:40;;;;;;;15.97;6.27;;;;;;;13.59;94.00;101871.25;5348036;27;20027;-73
2022/07/14 03:49:11;;;;;;;14.00;5.30;;;;;;;13.61;94.27;101867.72;5348744;27;20151;-73
2022/07/14 03:51:44;;;;;;;15.20;5.97;;;;;;;13.59;94.28;101876.47;5347394;27;20430;-73
2022/07/14 03:54:15;;;;;;;21.25;7.10;;;;;;;13.53;94.76;101884.38;5348985;27;20091;-73
2022/07/14 03:56:46;;;;;;;14.43;5.60;;;;;;;13.57;94.94;101893.94;5349848;27;20489;-74
2022/07/14 03:59:18;;;;;;;15.37;5.97;;;;;;;13.70;94.63;101895.59;5349173;27;20091;-72
2022/07/14 04:01:49;;;;;;;13.73;5.23;;;;;;;13.61;94.38;101896.53;5348499;27;20076;-73
2022/07/14 04:04:20;;;;;;;18.27;5.77;;;;;;;13.66;94.25;101901.75;5348542;27;20386;-73
2022/07/14 04:06:52;;;;;;;16.10;5.40;;;;;;;13.60;94.49;101904.41;5346947;27;20023;-73
2022/07/14 04:09:23;;;;;;;12.83;6.00;;;;;;;13.59;94.69;101903.53;5347274;27;20027;-73
2022/07/14 04:11:54;;;;;;;20.20;6.50;;;;;;;13.61;94.49;101900.91;5348316;27;20058;-73
2022/07/14 04:14:26;;;;;;;13.73;6.43;;;;;;;13.73;94.44;101899.94;5348520;27;20099;-72
2022/07/14 04:16:57;;;;;;;16.27;6.10;;;;;;;13.66;94.18;101894.75;5348521;27;20066;-71
2022/07/14 04:19:29;;;;;;;16.50;6.47;;;;;;;13.83;93.66;101897.22;5348971;27;20031;-72
2022/07/14 04:22:00;;;;;;;16.03;6.47;;;;;;;13.87;93.69;101892.81;5347131;27;20114;-72
2022/07/14 04:24:31;;;;;;;15.20;5.47;;;;;;;13.90;93.73;101898.03;5348389;27;20060;-72
2022/07/14 04:27:03;;;;;;;18.63;6.63;;;;;;;13.83;93.46;101886.75;5347070;27;20119;-73
2022/07/14 04:29:34;;;;;;;14.87;5.73;;;;;;;13.78;93.75;101891.16;5347806;27;20147;-72
2022/07/14 04:32:07;;;;;;;16.33;7.50;;;;;;;13.79;93.53;101889.41;5347898;27;20038;-72
2022/07/14 04:34:39;;;;;;;18.25;6.35;;;;;;;13.89;93.83;101892.81;5347640;27;20095;-72
2022/07/14 04:37:11;;;;;;;17.75;6.97;;;;;;;13.78;93.69;101899.03;5346229;27;20035;-72
2022/07/14 04:39:42;;;;;;;17.67;6.65;;;;;;;13.76;93.91;101905.16;5347938;27;20038;-72
2022/07/14 04:42:14;;;;;;;14.90;6.50;;;;;;;13.89;93.65;101888.44;5347920;27;20046;-73
2022/07/14 04:44:45;;;;;;;20.33;7.30;;;;;;;13.93;93.76;101886.69;5347970;27;20084;-73
2022/07/14 04:47:17;;;;;;;17.33;7.27;;;;;;;13.98;94.04;101882.25;5347781;27;20046;-72
2022/07/14 04:52:48;;;;;;;21.95;7.32;;;;;;;13.91;94.21;101875.31;5337810;27;20036;-73
2022/07/14 04:55:19;;;;;;;13.98;6.00;;;;;;;13.83;94.44;101878.88;5325094;28;20100;-73
2022/07/14 04:57:51;;;;;;;17.80;7.37;;;;;;;13.88;94.56;101872.72;5326170;28;20028;-73
2022/07/14 05:00:22;;;;;;;17.20;6.73;;;;;;;13.93;95.09;101878.81;5325971;28;20446;-73
2022/07/14 05:02:54;;;;;;;19.03;7.77;;;;;;;13.99;94.63;101877.00;5326128;28;20088;-73
2022/07/14 05:05:25;;;;;;;16.40;7.20;;;;;;;13.96;94.72;101891.88;5325841;28;20529;-73
2022/07/14 05:07:56;;;;;;;27.20;7.97;;;;;;;13.97;94.58;101902.34;5324318;28;20454;-73
2022/07/14 05:10:28;;;;;;;21.23;7.97;;;;;;;13.99;94.61;101908.47;5325578;28;20024;-73
2022/07/14 05:12:59;;;;;;;22.63;9.03;;;;;;;14.01;94.79;101905.81;5325967;28;20106;-74
2022/07/14 05:15:31;;;;;;;20.63;7.40;;;;;;;14.06;94.61;101908.41;5325903;28;20024;-73
2022/07/14 05:18:02;;;;;;;19.80;7.87;;;;;;;14.04;94.62;101914.53;5325760;28;20102;-73
2022/07/14 05:20:33;;;;;;;20.10;7.50;;;;;;;14.09;94.52;101903.09;5325494;28;20031;-74
2022/07/14 05:23:05;;;;;;;17.67;8.10;;;;;;;14.17;94.40;101896.91;5325889;28;20024;-74
2022/07/14 05:25:39;;;;;;;19.03;7.83;;;;;;;14.47;93.89;101883.50;5325699;28;20047;-74
2022/07/14 05:28:10;;;;;;;20.13;7.07;;;;;;;14.48;93.56;101886.09;5325302;28;20478;-74
2022/07/14 05:30:42;;;;;;;24.75;7.53;;;;;;;14.55;92.89;101887.78;5325107;28;20097;-72
2022/07/14 05:33:13;;;;;;;24.97;7.77;;;;;;;14.62;92.62;101892.97;5325323;28;20039;-72
2022/07/14 05:35:45;;;;;;;19.25;7.05;;;;;;;14.62;92.03;101892.97;5325412;28;20482;-74
2022/07/14 05:38:17;;;;;;;18.93;8.10;;;;;;;14.67;92.16;101891.19;5325186;28;20028;-74
2022/07/14 05:40:48;;;;;;;17.40;7.33;;;;;;;14.78;91.35;101891.91;5307226;28;20031;-74
2022/07/14 05:43:20;;;;;;;17.53;6.53;;;;;;;14.86;91.21;101882.19;5325846;28;20036;-75
2022/07/14 05:45:51;;;;;;;17.23;6.93;;;;;;;14.87;90.11;101888.28;5325732;28;20032;-74
2022/07/14 05:48:22;;;;;;;18.63;7.13;;;;;;;14.88;89.60;101900.53;5324029;28;20076;-74
2022/07/14 05:50:54;;;;;;;16.53;6.70;;;;;;;15.00;89.13;101895.09;5323895;28;20027;-75
2022/07/14 05:53:25;;;;;;;16.67;6.93;;;;;;;15.05;89.20;101901.19;5323815;28;20024;-74
2022/07/14 05:55:57;;;;;;;14.53;6.97;;;;;;;15.19;88.80;101895.72;5325493;28;20386;-74
2022/07/14 05:58:29;;;;;;;19.65;7.40;;;;;;;15.20;88.66;101897.47;5323829;28;20057;-74
2022/07/14 06:01:01;;;;;;;22.95;7.68;;;;;;;15.21;88.36;101898.31;5324919;27;20389;-74
2022/07/14 06:03:32;;;;;;;18.75;6.85;;;;;;;15.38;88.39;101891.06;5323969;28;20161;-74
2022/07/14 06:06:06;;;;;;;20.13;6.87;;;;;;;15.37;87.47;101894.56;5323886;28;20039;-74
2022/07/14 06:08:37;;;;;;;21.50;6.10;;;;;;;15.50;86.65;101892.63;5325826;28;20054;-74
2022/07/14 06:11:09;;;;;;;20.97;8.20;;;;;;;15.52;85.46;101890.88;5330549;28;20043;-74
2022/07/14 06:13:41;;;;;;;21.60;6.37;;;;;;;15.55;85.18;101893.41;5330549;28;20024;-74
2022/07/14 06:16:13;;;;;;;16.13;5.20;;;;;;;15.75;85.13;101908.03;5329801;28;20028;-74
2022/07/14 06:18:44;;;;;;;24.07;6.10;;;;;;;15.83;85.13;101903.53;5329339;28;20034;-75
2022/07/14 06:21:16;;;;;;;18.83;7.03;;;;;;;15.83;83.83;101898.28;5329594;28;20522;-74
2022/07/14 06:23:47;;;;;;;16.03;5.43;;;;;;;15.92;84.23;101895.47;5329342;27;20136;-74
2022/07/14 06:26:18;;;;;;;19.97;6.47;;;;;;;16.10;84.01;101891.69;5329004;28;20036;-74
2022/07/14 06:28:50;;;;;;;19.87;6.50;;;;;;;16.22;83.36;101888.78;5330222;28;20035;-74
2022/07/14 06:31:21;;;;;;;15.70;5.50;;;;;;;16.46;82.65;101880.47;5332821;28;20067;-74
2022/07/14 06:33:52;;;;;;;16.30;5.57;;;;;;;16.37;80.34;101887.66;5333322;28;20058;-75
2022/07/14 06:36:24;;;;;;;12.97;4.83;;;;;;;16.39;80.72;101903.41;5331943;28;20460;-72
2022/07/14 06:38:56;;;;;;;17.80;5.77;;;;;;;16.52;80.79;101899.63;5333198;28;20023;-73
2022/07/14 06:41:27;;;;;;;15.40;5.57;;;;;;;16.63;79.45;101891.53;5333577;28;20391;-73
2022/07/14 06:43:59;;;;;;;15.80;5.43;;;;;;;16.65;79.87;101897.63;5333862;28;20042;-73
2022/07/14 06:46:32;;;;;;;20.30;5.77;;;;;;;16.73;79.72;101897.47;5333079;27;20023;-72
2022/07/14 06:49:03;;;;;;;15.40;6.15;;;;;;;16.82;78.66;101910.44;5331898;27;20032;-73
2022/07/14 06:51:34;;;;;;;17.10;6.00;;;;;;;16.77;78.76;101907.03;5330428;28;20096;-73
2022/07/14 06:54:07;;;;;;;18.07;6.47;;;;;;;16.75;77.87;101896.53;5329352;28;20063;-73
2022/07/14 06:56:38;;;;;;;18.10;5.45;;;;;;;16.91;77.16;101898.88;5329603;28;20088;-74
2022/07/14 06:59:09;;;;;;;12.97;5.67;;;;;;;16.99;77.25;101901.34;5329100;28;20028;-73
2022/07/14 07:01:41;;;;;;;18.93;6.93;;;;;;;17.11;76.53;101888.78;5329006;28;20066;-74
2022/07/14 07:04:12;;;;;;;17.43;7.37;;;;;;;17.22;76.51;101893.78;5331142;28;20140;-74
2022/07/14 07:06:44;;;;;;;14.13;6.00;;;;;;;17.30;75.65;101890.97;5328875;28;20031;-73
2022/07/14 07:09:18;;;;;;;25.42;7.82;;;;;;;17.25;74.64;101898.13;5328398;28;20031;-73
2022/07/14 07:11:49;;;;;;;18.67;6.03;;;;;;;17.07;73.13;101896.78;5328798;28;20023;-73
2022/07/14 07:14:21;;;;;;;13.37;5.50;;;;;;;17.12;74.05;101906.31;5327290;28;20035;-73
2022/07/14 07:16:53;;;;;;;18.23;6.03;;;;;;;17.28;73.88;101901.56;5328708;28;20463;-73
2022/07/14 07:19:26;;;;;;;17.10;5.93;;;;;;;17.23;74.23;101905.22;5328730;28;20027;-73
2022/07/14 07:21:57;;;;;;;13.15;5.65;;;;;;;17.22;73.37;101900.84;5327184;28;20027;-73
2022/07/14 07:24:29;;;;;;;16.83;6.20;;;;;;;17.22;73.46;101890.28;5328602;28;20361;-73
2022/07/14 07:27:00;;;;;;;11.27;5.37;;;;;;;17.42;73.57;101897.72;5327255;28;20107;-73
2022/07/14 07:29:31;;;;;;;13.23;5.73;;;;;;;17.58;73.11;101891.19;5328214;28;20119;-73
2022/07/14 07:32:03;;;;;;;15.97;5.40;;;;;;;17.77;72.43;101896.88;5327867;27;20054;-74
2022/07/14 07:34:36;;;;;;;13.57;5.07;;;;;;;17.89;71.52;101886.94;5328948;28;20251;-74
2022/07/14 07:37:09;;;;;;;17.85;5.72;;;;;;;17.92;70.93;101892.13;5334099;28;20439;-73
2022/07/14 07:39:40;;;;;;;14.57;5.45;;;;;;;18.04;70.25;101897.09;5331822;28;20122;-73
2022/07/14 07:42:11;;;;;;;15.53;5.47;;;;;;;18.15;69.23;101883.63;5330467;28;20028;-73
2022/07/14 07:44:43;;;;;;;14.63;4.33;;;;;;;18.23;68.85;101871.94;5328452;28;20030;-73
2022/07/14 07:47:14;;;;;;;15.47;5.00;;;;;;;18.46;69.42;101866.94;5328140;28;20031;-73
2022/07/14 07:49:46;;;;;;;12.87;4.37;;;;;;;18.59;69.03;101870.94;5327977;28;20028;-73
2022/07/14 07:52:17;;;;;;;11.00;4.30;;;;;;;18.59;67.74;101863.03;5327891;28;20362;-73
2022/07/14 07:54:49;;;;;;;15.63;5.17;;;;;;;18.75;67.34;101866.09;5327820;28;20031;-73
2022/07/14 07:57:20;;;;;;;14.93;4.43;;;;;;;18.89;66.68;101876.28;5327690;28;20028;-73
2022/07/14 07:59:51;;;;;;;10.47;4.30;;;;;;;18.97;64.85;101858.41;5327791;28;20039;-72
2022/07/14 08:02:24;;;;;;;20.70;4.70;;;;;;;19.09;65.56;101862.44;5328137;28;20036;-73
2022/07/14 08:04:56;;;;;;;13.80;5.25;;;;;;;18.97;64.52;101854.91;5328324;28;20491;-73
2022/07/14 08:07:27;;;;;;;11.67;4.10;;;;;;;19.13;63.72;101859.66;5327510;28;20136;-73
2022/07/14 08:09:58;;;;;;;13.90;4.73;;;;;;;19.23;64.17;101846.16;5327369;28;20107;-73
2022/07/14 08:12:30;;;;;;;11.90;4.10;;;;;;;19.46;63.68;101848.94;5327027;27;20028;-73
2022/07/14 08:15:01;;;;;;;15.77;4.00;;;;;;;19.42;62.11;101849.94;5327327;28;20046;-73
2022/07/14 08:17:33;;;;;;;13.73;4.77;;;;;;;19.22;60.64;101847.91;5326758;28;20039;-73
2022/07/14 08:20:08;;;;;;;12.23;4.10;;;;;;;19.35;61.55;101847.53;5325839;28;20031;-73
2022/07/14 08:22:39;;;;;;;14.02;4.22;;;;;;;19.59;61.93;101835.28;5326737;28;20023;-73
2022/07/14 08:25:10;;;;;;;11.17;3.13;;;;;;;19.74;62.00;101836.53;5326791;28;20035;-73
2022/07/14 08:27:42;;;;;;;11.23;3.37;;;;;;;19.79;59.98;101838.13;5327044;28;20121;-73
2022/07/14 08:30:13;;;;;;;12.37;3.73;;;;;;;19.85;57.20;101842.34;5326390;28;20047;-73
2022/07/14 08:32:50;;;;;;;10.47;3.73;;;;;;;20.07;58.40;101847.75;5325074;28;20100;-73
2022/07/14 08:35:23;;;;;;;9.75;3.58;;;;;;;20.18;55.59;101834.13;5326600;28;20032;-73
2022/07/14 08:37:55;;;;;;;11.48;4.68;;;;;;;20.81;56.06;101839.72;5326300;28;20466;-73
2022/07/14 08:40:26;;;;;;;11.75;4.18;;;;;;;21.12;54.85;101833.19;5326482;28;20050;-72
2022/07/14 08:42:58;;;;;;;11.10;3.33;;;;;;;21.53;53.79;101841.28;5326373;28;20035;-73
2022/07/14 08:45:40;;;;;;;7.97;3.15;;;;;;;21.39;53.43;101847.13;5326572;28;20374;-72
2022/07/14 08:48:14;;;;;;;9.75;3.75;;;;;;;21.56;53.53;101848.22;5326386;28;20050;-73
2022/07/14 08:50:46;;;;;;;8.27;3.17;;;;;;;21.90;54.25;101841.50;5326418;28;20020;-73
2022/07/14 08:53:18;;;;;;;8.77;3.50;;;;;;;21.56;52.35;101848.22;5325018;28;20092;-73
2022/07/14 08:55:49;;;;;;;11.50;3.28;;;;;;;21.49;51.71;101842.31;5325146;28;20035;-74
2022/07/14 08:58:21;;;;;;;12.35;3.78;;;;;;;21.37;51.47;101838.38;5325865;28;20059;-73
2022/07/14 09:00:52;;;;;;;9.33;3.33;;;;;;;21.40;52.73;101838.25;5326272;28;20077;-74
2022/07/14 09:03:24;;;;;;;9.87;3.67;;;;;;;21.25;53.32;101834.44;5326345;28;20032;-73
2022/07/14 09:05:55;;;;;;;10.77;3.40;;;;;;;21.44;53.80;101842.47;5327619;28;20489;-73
2022/07/14 09:08:27;;;;;;;10.20;3.87;;;;;;;21.29;51.79;101835.19;5324536;28;20545;-74
2022/07/14 09:10:59;;;;;;;8.63;3.35;;;;;;;21.39;52.95;101839.16;5325895;28;20481;-74
2022/07/14 09:13:33;;;;;;;12.48;4.10;;;;;;;21.27;51.12;101826.44;5325603;28;20039;-73
2022/07/14 09:16:19;;;;;;;11.00;4.30;;;;;;;21.44;53.15;101833.66;5325945;28;20023;-74
2022/07/14 09:19:03;;;;;;;12.60;4.07;;;;;;;21.70;52.91;101840.56;5324667;28;20031;-73
2022/07/14 09:21:37;;;;;;;11.27;3.88;;;;;;;22.00;50.94;101824.22;5325664;28;20490;-74
2022/07/14 09:24:10;;;;;;;10.23;3.63;;;;;;;22.37;50.54;101827.91;5324158;28;20127;-74
2022/07/14 09:26:45;;;;;;;12.40;4.95;;;;;;;22.58;50.19;101834.03;5325905;28;20136;-74
2022/07/14 09:29:25;;;;;;;8.55;2.95;;;;;;;22.62;48.53;101832.97;5325526;28;20027;-73
2022/07/14 09:31:56;;;;;;;7.75;2.78;;;;;;;22.73;46.78;101827.13;5326085;28;20044;-74
2022/07/14 09:34:34;;;;;;;7.97;3.10;;;;;;;23.01;46.84;101826.66;5325549;28;20046;-74
2022/07/14 09:37:18;;;;;;;10.10;3.40;;;;;;;22.98;45.45;101825.97;5325470;28;20034;-73
2022/07/14 09:39:51;;;;;;;12.90;3.30;;;;;;;22.53;45.17;101826.28;5325997;28;20028;-73
2022/07/14 09:42:47;;;;;;;13.00;3.70;;;;;;;22.50;47.11;101826.41;5325682;28;20472;-73
2022/07/14 09:45:22;;;;;;;9.65;3.13;;;;;;;22.61;45.96;101825.91;5324709;28;20024;-73
2022/07/14 09:47:58;;;;;;;7.18;3.22;;;;;;;23.04;43.10;101815.88;5324221;28;20072;-73
2022/07/14 09:50:45;;;;;;;7.82;3.10;;;;;;;23.59;44.42;101822.06;5325596;28;20054;-74
2022/07/14 09:53:24;;;;;;;7.70;2.83;;;;;;;24.11;41.95;101821.16;5325733;28;20032;-73
2022/07/14 09:56:00;;;;;;;9.80;2.80;;;;;;;24.30;41.74;101823.72;5323827;28;20062;-74
2022/07/14 09:58:35;;;;;;;9.55;2.88;;;;;;;24.02;41.59;101831.38;5324605;28;20146;-74
2022/07/14 10:01:09;;;;;;;9.02;3.50;;;;;;;24.54;41.70;101833.00;5324313;28;20073;-74
2022/07/14 10:03:42;;;;;;;9.98;3.60;;;;;;;24.79;40.79;101836.16;5323517;28;20501;-73
2022/07/14 10:06:14;;;;;;;3.92;2.10;;;;;;;25.11;40.19;101831.66;5323265;28;20081;-74
2022/07/14 10:08:53;;;;;;;7.97;2.75;;;;;;;24.94;38.02;101827.31;5324543;28;20360;-74
2022/07/14 10:11:26;;;;;;;11.13;2.60;;;;;;;25.67;38.76;101824.81;5323618;28;20077;-74
2022/07/14 10:13:57;;;;;;;8.75;2.72;;;;;;;25.52;36.80;101825.75;5324912;28;20126;-73
2022/07/14 10:16:34;;;;;;;8.38;3.17;;;;;;;25.18;38.72;101830.38;5325000;28;20028;-74
2022/07/14 10:19:06;;;;;;;8.57;2.80;;;;;;;25.24;39.47;101831.81;5324762;28;20034;-74
2022/07/14 10:21:38;;;;;;;11.02;2.70;;;;;;;25.21;39.45;101832.84;5324575;28;20031;-74
2022/07/14 10:24:09;;;;;;;9.13;2.80;;;;;;;25.39;37.48;101836.28;5324358;28;20031;-74
2022/07/14 10:26:42;;;;;;;7.18;2.22;;;;;;;25.61;40.09;101829.66;5324566;28;20032;-74
2022/07/14 10:29:14;;;;;;;9.05;2.45;;;;;;;24.86;35.53;101834.84;5323202;28;20039;-73
2022/07/14 10:31:53;;;;;;;;;;;;;;;26.44;37.97;101829.94;5325049;28;20059;-73
2022/07/14 10:34:41;;;;;;;6.47;2.20;;;;;;;25.85;37.01;101838.84;5324426;28;20274;-74
2022/07/14 10:37:40;;;;;;;5.70;1.92;;;;;;;26.73;37.56;101837.94;5324384;28;20478;-74
2022/07/14 10:40:55;;;;;;;5.40;1.95;;;;;;;26.92;36.83;101840.28;5324562;28;20034;-74
2022/07/14 10:43:41;;;;;;;7.68;2.70;;;;;;;27.35;34.00;101837.44;5291326;28;20040;-73
2022/07/14 10:46:32;;;;;;;9.00;2.05;;;;;;;28.35;32.38;101833.25;5324732;28;20077;-74
2022/07/14 10:49:06;;;;;;;5.68;2.10;;;;;;;27.68;33.40;101838.81;5324810;28;20110;-74
2022/07/14 10:51:50;;;;;;;6.15;1.90;;;;;;;26.36;32.26;101832.25;5323357;28;20096;-72
2022/07/14 10:54:26;;;;;;;8.57;1.88;;;;;;;26.90;32.49;101837.72;5324539;28;20042;-73
2022/07/14 10:57:14;;;;;;;5.65;1.70;;;;;;;27.34;32.21;101838.41;5328743;28;20468;-74
2022/07/14 10:59:47;;;;;;;6.28;2.10;;;;;;;26.82;32.28;101826.63;5328608;28;20028;-74
2022/07/14 11:02:20;;;;;;;8.43;2.50;;;;;;;27.81;33.32;101828.94;5328752;27;20082;-74
2022/07/14 11:04:58;;;;;;;9.07;2.42;;;;;;;27.32;32.06;101834.13;5328458;28;20032;-74
2022/07/14 11:07:48;;;;;;;5.63;1.98;;;;;;;27.75;32.30;101836.56;5328121;28;20027;-74
2022/07/14 11:10:19;;;;;;;5.80;2.15;;;;;;;27.54;32.30;101839.72;5328231;28;20023;-74
2022/07/14 11:12:59;;;;;;;;;;;;;;;29.14;30.97;101840.06;5328552;28;20028;-73
2022/07/14 11:15:50;;;;;;;8.68;2.22;;;;;;;28.61;31.76;101833.22;5328485;28;20350;-74
2022/07/14 11:18:41;;;;;;;6.75;2.17;;;;;;;30.33;30.06;101839.88;5328488;28;20023;-74
2022/07/14 11:21:18;;;;;;;8.05;2.55;;;;;;;31.54;27.19;101839.81;5328341;28;20119;-74
2022/07/14 11:23:49;;;;;;;7.18;2.08;;;;;;;32.09;27.07;101834.19;5326427;28;20066;-74
2022/07/14 11:26:37;;;;;;;10.75;2.40;;;;;;;31.23;26.65;101834.28;5328013;28;20052;-74
2022/07/14 11:29:09;;;;;;;3.85;2.22;;;;;;;31.68;27.37;101824.31;5327696;28;20063;-75
2022/07/14 11:31:46;;;;;;;7.65;2.40;;;;;;;32.67;28.70;101830.84;5328140;28;20120;-75
2022/07/14 11:37:19;;;;;;;6.82;2.30;;;;;;;32.07;26.81;101821.78;5329371;28;20039;-74
2022/07/14 11:39:50;;;;;;;8.32;2.58;;;;;;;33.43;25.89;101824.75;5326992;28;20039;-74
2022/07/14 11:42:22;;;;;;;7.88;3.10;;;;;;;33.78;24.99;101823.31;5327984;28;20437;-74
2022/07/14 11:44:54;;;;;;;7.45;2.47;;;;;;;34.32;25.12;101822.66;5326723;28;20391;-75
2022/07/14 11:47:30;;;;;;;7.82;3.03;;;;;;;33.62;24.32;101820.34;5328468;28;20036;-74
2022/07/14 11:50:05;;;;;;;10.50;2.55;;;;;;;33.31;26.15;101819.66;5328133;28;20502;-74
2022/07/14 11:52:39;;;;;;;8.05;2.90;;;;;;;31.49;25.22;101817.75;5327737;28;20024;-73
2022/07/14 11:55:14;;;;;;;4.32;2.05;;;;;;;31.62;26.72;101821.16;5327617;28;20454;-73